メインページ
METAR-TAF:

METAR-TAF

空港 :

ラルナカ, キプロス

ラルナカ国際空港

緯度: 34-53N, 経度: 033-38E, 海抜: 2m

現時点の気象観測

当レポートは30分前の05:30(UTC)に作成
北/北西の風 3kt、西/北西からの間で変化する
気温 29°C
湿度 62%
気圧 1010 hPa
視程10km以上
高度3500ftの雲はほとんどない
高度5000ftの雲は散在している

METAR: LCLK 200530Z 34003KT 300V090 9999 FEW035 SCT050 29/21 Q1010 NOSIG

時間: 09:00 (06:00 UTC)

予報

当レポートは30分前の05:30(UTC)に作成
予報は20日の 06時(UTC)から 21日の 06時(UTC)まで有効
南/南東の風 8kt
視程10km以上
高度2500ftの雲はほとんどない
20日の 08時(UTC)から 20日の 11時(UTC)まで徐々に
南/南西の風 17kt
20日の 16時(UTC)から 20日の 18時(UTC)まで徐々に
西の風 7kt

TAF: LCLK 200530Z 2006/2106 16008KT 9999 FEW025 BECMG 2008/2011 21017KT BECMG 2016/2018 28007KT

4,000以上の空港の気象観測と天気予報(METAR報とTAF報)

利用可能な観測所は地図上に黄色い丸と赤い丸で示す。

丸の上にカーソルを重ねると観測所名を参照できる。

次にクリックすると気象観測と天気予報を参照できる。

マップの切り替え:黒色「×」印の緑ボタンをクリックして拡大、「-」印の緑ボタンをクリックして縮小、緑色の三角印をクリックして隣りの地図に切り替え


METAR-TAF: